This demonstration page uses our WeatherBlox Daily Observations layout. Learn more.

41.55636, -103.73856

Hourly Observations for September 9, 2017

Temp ( °F °C ) Dew Point ( °F °C ) Humidity (%) Winds ( mph kmh ) Pressure ( in mb ) Visibility ( mi km ) Precip ( " mm )
12:53 am 00:53 Clear 64 17.8 53 11.7 68 68 E 6 9 29.91 1013 10 16.0934 0 0
1:53 am 01:53 Clear 62 16.7 53 11.7 73 73 ESE 9 15 29.9 1012 10 16.0934 0 0
2:53 am 02:53 Clear 61 16.1 52 11.1 72 72 ESE 9 15 29.9 1013 10 16.0934 0 0
3:53 am 03:53 Clear 59 15 52 11.1 78 78 ESE 10 17 29.9 1013 10 16.0934 0 0
4:53 am 04:53 Clear 59 15 52 11.1 78 78 E 9 15 29.91 1013 10 16.0934 0 0
5:53 am 05:53 Clear 59 15 51 10.6 75 75 E 12 19 29.94 1014 10 16.0934 0 0
6:53 am 06:53 Sunny 58 14.4 51 10.6 78 78 SE 6 9 29.99 1016 10 16.0934 0 0
7:53 am 07:53 Sunny 59 15 51 10.6 75 75 SE 7 11 29.99 1016 10 16.0934 0 0
8:53 am 08:53 Sunny 64 17.8 52 11.1 65 65 ESE 6 9 29.98 1015 10 16.0934 0 0
9:53 am 09:53 Sunny 69 20.6 52 11.1 55 55 E 7 11 29.97 1015 10 16.0934 0 0
10:53 am 10:53 Sunny 74 23.3 52 11.1 46 46 VRB 5 7 29.95 1014 10 16.0934 0 0
11:53 am 11:53 Sunny 80 26.7 51 10.6 37 37 Calm 29.93 1014 10 16.0934 0 0
12:53 pm 12:53 Sunny 84 28.9 47 8.3 27 27 VRB 5 7 29.91 1013 10 16.0934 0 0
1:53 pm 13:53 Sunny 87 30.6 47 8.3 25 25 E 5 7 29.9 1012 10 16.0934 0 0
2:53 pm 14:53 Sunny 88 31.1 48 8.9 25 25 SE 6 9 29.88 1012 9 14.48406 0 0
3:53 pm 15:53 Sunny 89 31.7 48 8.9 24 24 ESE 7 11 29.86 1011 9 14.48406 0 0
4:53 pm 16:53 Sunny 89 31.7 48 8.9 24 24 ESE 9 15 29.85 1011 8 12.87472 0 0
5:53 pm 17:53 Sunny 86 30 52 11.1 31 31 ESE 7 11 29.86 1011 8 12.87472 0 0
6:53 pm 18:53 Hazy 78 25.6 56 13.3 47 47 E 6 9 29.88 1012 6 9.65604 0 0
7:53 pm 19:53 Clear 74 23.3 53 11.7 48 48 VRB 3 6 29.9 1013 7 11.26538 0 0
8:53 pm 20:53 Clear 71 21.7 51 10.6 49 49 N 6 9 29.91 1013 8 12.87472 0 0
9:53 pm 21:53 Clear 69 20.6 51 10.6 53 53 NNE 8 13 29.91 1013 8 12.87472 0 0
10:53 pm 22:53 Clear 65 18.3 50 10 59 59 WSW 3 6 29.91 1013 8 12.87472 0 0
11:53 pm 23:53 Clear 62 16.7 51 10.6 67 67 NNW 6 9 29.91 1013 8 12.87472 0 0

Powered by AerisWeather